createdAt,value
2018-07-06T00:01:33.625Z,95367.00
2018-07-06T00:04:21.501Z,95367.00
2018-07-06T00:07:09.128Z,95370.00
2018-07-06T00:09:57.035Z,95373.00
2018-07-06T00:12:44.819Z,95375.00
2018-07-06T00:15:32.423Z,95367.00
2018-07-06T00:18:20.467Z,95370.00
2018-07-06T00:21:08.181Z,95369.00
2018-07-06T00:23:56.088Z,95365.00
2018-07-06T00:26:44.363Z,95361.00
2018-07-06T00:29:32.350Z,95360.00
2018-07-06T00:32:20.277Z,95356.00
2018-07-06T00:35:08.263Z,95357.00
2018-07-06T00:37:56.762Z,95353.00
2018-07-06T00:40:44.689Z,95357.00
2018-07-06T00:43:32.452Z,95360.00
2018-07-06T00:46:19.976Z,95357.00
2018-07-06T00:49:07.905Z,95362.00
2018-07-06T00:51:55.998Z,95363.00
2018-07-06T00:54:43.654Z,95364.00
2018-07-06T00:57:31.527Z,95365.00
2018-07-06T01:00:20.327Z,95363.00
2018-07-06T01:03:08.395Z,95363.00
2018-07-06T01:05:56.360Z,95364.00
2018-07-06T01:08:44.207Z,95367.00
2018-07-06T01:11:31.985Z,95366.00
2018-07-06T01:14:20.391Z,95367.00
2018-07-06T01:17:12.368Z,95370.00
2018-07-06T01:20:00.425Z,95372.00
2018-07-06T01:22:48.224Z,95376.00
2018-07-06T01:25:36.212Z,95378.00
2018-07-06T01:28:23.968Z,95382.00
2018-07-06T01:31:11.911Z,95387.00
2018-07-06T01:34:00.270Z,95391.00
2018-07-06T01:36:48.245Z,95392.00
2018-07-06T01:39:36.003Z,95389.00
2018-07-06T01:42:24.083Z,95392.00
2018-07-06T01:45:11.971Z,95398.00
2018-07-06T01:47:59.784Z,95398.00
2018-07-06T01:50:47.682Z,95400.00
2018-07-06T01:53:35.544Z,95408.00
2018-07-06T01:56:23.373Z,95410.00
2018-07-06T01:59:11.292Z,95414.00
2018-07-06T02:01:59.195Z,95414.00
2018-07-06T02:04:47.028Z,95413.00
2018-07-06T02:07:34.795Z,95418.00
2018-07-06T02:10:22.735Z,95417.00
2018-07-06T02:13:10.736Z,95418.00
2018-07-06T02:15:58.756Z,95426.00
2018-07-06T02:18:46.826Z,95427.00
2018-07-06T02:21:34.764Z,95423.00
2018-07-06T02:24:22.695Z,95417.00
2018-07-06T02:27:10.305Z,95424.00
2018-07-06T02:29:58.034Z,95423.00
2018-07-06T02:32:46.035Z,95419.00
2018-07-06T02:35:39.819Z,95420.00
2018-07-06T02:38:27.447Z,95428.00
2018-07-06T02:41:15.352Z,95429.00
2018-07-06T02:44:03.119Z,95428.00
2018-07-06T02:46:50.892Z,95431.00
2018-07-06T02:49:39.107Z,95431.00
2018-07-06T02:52:27.068Z,95433.00
2018-07-06T02:55:14.622Z,95434.00
2018-07-06T02:58:02.261Z,95434.00
2018-07-06T03:00:50.124Z,95434.00
2018-07-06T03:03:37.912Z,95435.00
2018-07-06T03:06:26.010Z,95436.00
2018-07-06T03:09:13.524Z,95437.00
2018-07-06T03:12:00.919Z,95430.00
2018-07-06T03:14:48.483Z,95429.00
2018-07-06T03:17:36.604Z,95431.00
2018-07-06T03:20:24.481Z,95431.00
2018-07-06T03:23:11.983Z,95434.00
2018-07-06T03:26:00.133Z,95435.00
2018-07-06T03:28:48.399Z,95430.00
2018-07-06T03:31:36.131Z,95431.00
2018-07-06T03:34:23.722Z,95429.00
2018-07-06T03:37:11.538Z,95435.00
2018-07-06T03:39:59.269Z,95439.00
2018-07-06T03:42:46.655Z,95438.00
2018-07-06T03:45:34.602Z,95443.00
2018-07-06T03:48:26.488Z,95440.00
2018-07-06T03:51:14.495Z,95444.00
2018-07-06T03:54:02.261Z,95442.00
2018-07-06T03:56:50.008Z,95447.00
2018-07-06T03:59:37.591Z,95450.00
2018-07-06T04:02:25.902Z,95455.00
2018-07-06T04:05:13.673Z,95452.00
2018-07-06T04:08:01.719Z,95460.00
2018-07-06T04:10:49.380Z,95453.00
2018-07-06T04:13:37.064Z,95455.00
2018-07-06T04:16:25.265Z,95458.00
2018-07-06T04:19:13.427Z,95462.00
2018-07-06T04:22:01.097Z,95465.00
2018-07-06T04:24:48.639Z,95467.00
2018-07-06T04:27:36.283Z,95465.00
2018-07-06T04:30:24.122Z,95473.00
2018-07-06T04:33:12.040Z,95475.00
2018-07-06T04:35:59.809Z,95480.00
2018-07-06T04:38:47.676Z,95483.00
2018-07-06T04:41:35.373Z,95480.00
2018-07-06T04:44:23.301Z,95484.00
2018-07-06T04:47:10.821Z,95475.00
2018-07-06T04:49:58.548Z,95479.00
2018-07-06T04:52:46.248Z,95482.00
2018-07-06T04:55:33.808Z,95486.00
2018-07-06T04:58:21.699Z,95485.00
2018-07-06T05:01:09.396Z,95485.00
2018-07-06T05:03:57.007Z,95486.00
2018-07-06T05:06:45.222Z,95488.00
2018-07-06T05:09:33.086Z,95497.00
2018-07-06T05:12:20.668Z,95498.00
2018-07-06T05:15:08.440Z,95497.00
2018-07-06T05:17:56.391Z,95502.00
2018-07-06T05:20:44.265Z,95497.00
2018-07-06T05:23:31.981Z,95500.00
2018-07-06T05:26:19.775Z,95505.00
2018-07-06T05:29:07.637Z,95506.00
2018-07-06T05:31:55.603Z,95510.00
2018-07-06T05:34:43.460Z,95509.00
2018-07-06T05:37:31.307Z,95514.00
2018-07-06T05:40:18.918Z,95513.00
2018-07-06T05:43:06.783Z,95518.00
2018-07-06T05:45:54.186Z,95523.00
2018-07-06T05:48:41.770Z,95526.00
2018-07-06T05:51:31.567Z,95530.00
2018-07-06T05:54:21.146Z,95535.00
2018-07-06T05:57:11.796Z,95542.00
2018-07-06T06:00:00.463Z,95540.00
2018-07-06T06:02:48.495Z,95543.00
2018-07-06T06:05:36.870Z,95545.00
2018-07-06T06:08:18.165Z,95539.00
2018-07-06T06:10:50.136Z,95540.00
2018-07-06T06:13:50.110Z,95542.00
2018-07-06T06:16:27.332Z,95546.00
2018-07-06T06:18:58.643Z,95543.00
2018-07-06T06:21:29.998Z,95544.00
2018-07-06T06:24:01.294Z,95549.00
2018-07-06T06:26:33.115Z,95553.00
2018-07-06T06:29:04.352Z,95555.00
2018-07-06T06:31:35.677Z,95560.00
2018-07-06T06:34:06.908Z,95563.00
2018-07-06T06:36:38.251Z,95568.00
2018-07-06T06:39:09.670Z,95569.00
2018-07-06T06:41:41.580Z,95568.00
2018-07-06T06:44:12.852Z,95567.00
2018-07-06T06:46:44.518Z,95568.00
2018-07-06T06:49:15.825Z,95576.00
2018-07-06T06:51:47.789Z,95578.00
2018-07-06T06:54:19.122Z,95578.00
2018-07-06T06:56:50.291Z,95577.00
2018-07-06T06:59:22.019Z,95580.00
2018-07-06T07:01:53.589Z,95577.00
2018-07-06T07:04:36.264Z,95581.00
2018-07-06T07:07:26.733Z,95576.00
2018-07-06T07:10:08.463Z,95580.00
2018-07-06T07:12:56.694Z,95575.00
2018-07-06T07:15:39.290Z,95576.00
2018-07-06T07:18:12.257Z,95577.00
2018-07-06T07:20:45.263Z,95579.00
2018-07-06T07:23:18.094Z,95577.00
2018-07-06T07:25:49.565Z,95576.00
2018-07-06T07:28:20.887Z,95580.00
2018-07-06T07:30:55.380Z,95580.00
2018-07-06T07:33:26.767Z,95572.00
2018-07-06T07:35:58.310Z,95574.00
2018-07-06T07:38:29.772Z,95577.00
2018-07-06T07:41:01.119Z,95584.00
2018-07-06T07:43:32.586Z,95581.00
2018-07-06T07:46:04.505Z,95577.00
2018-07-06T07:48:40.665Z,95583.00
2018-07-06T07:52:00.785Z,95585.00
2018-07-06T07:54:40.018Z,95592.00
2018-07-06T07:57:20.011Z,95592.00
2018-07-06T08:00:03.705Z,95593.00
2018-07-06T08:02:35.116Z,95593.00
2018-07-06T08:05:10.516Z,95600.00
2018-07-06T08:07:41.721Z,95605.00
2018-07-06T08:10:13.207Z,95604.00
2018-07-06T08:12:44.436Z,95611.00
2018-07-06T08:15:15.738Z,95610.00
2018-07-06T08:17:47.046Z,95618.00
2018-07-06T08:20:18.544Z,95623.00
2018-07-06T08:22:49.832Z,95622.00
2018-07-06T08:25:20.967Z,95625.00
2018-07-06T08:27:52.523Z,95624.00
2018-07-06T08:30:23.957Z,95625.00
2018-07-06T08:32:55.534Z,95623.00
2018-07-06T08:35:37.316Z,95624.00
2018-07-06T08:38:20.155Z,95628.00
2018-07-06T08:40:52.004Z,95626.00
2018-07-06T08:43:23.696Z,95624.00
2018-07-06T08:45:55.446Z,95632.00
2018-07-06T08:48:27.359Z,95633.00
2018-07-06T08:50:58.908Z,95638.00
2018-07-06T08:53:30.640Z,95636.00
2018-07-06T08:56:02.070Z,95641.00
2018-07-06T08:58:33.509Z,95637.00
2018-07-06T09:01:05.122Z,95637.00
2018-07-06T09:03:36.455Z,95639.00
2018-07-06T09:06:07.942Z,95641.00
2018-07-06T09:08:39.955Z,95639.00
2018-07-06T09:11:11.539Z,95637.00
2018-07-06T09:13:43.119Z,95637.00
2018-07-06T09:16:14.808Z,95640.00
2018-07-06T09:18:46.368Z,95639.00
2018-07-06T09:21:18.156Z,95637.00
2018-07-06T09:23:50.185Z,95638.00
2018-07-06T09:26:21.744Z,95636.00
2018-07-06T09:29:01.435Z,95630.00
2018-07-06T09:31:37.754Z,95631.00
2018-07-06T09:34:10.732Z,95631.00
2018-07-06T09:36:42.352Z,95634.00
2018-07-06T09:39:14.389Z,95627.00
2018-07-06T09:41:50.544Z,95625.00
2018-07-06T09:44:22.828Z,95625.00
2018-07-06T09:46:54.396Z,95629.00
2018-07-06T09:49:29.094Z,95623.00
2018-07-06T09:52:01.014Z,95621.00
2018-07-06T09:54:39.541Z,95629.00
2018-07-06T09:57:13.588Z,95624.00
2018-07-06T09:59:48.869Z,95619.00
2018-07-06T10:02:20.583Z,95628.00
2018-07-06T10:04:51.864Z,95624.00
2018-07-06T10:07:25.004Z,95625.00
2018-07-06T10:09:56.468Z,95624.00
2018-07-06T10:12:31.404Z,95630.00
2018-07-06T10:15:04.076Z,95627.00
2018-07-06T10:17:36.246Z,95625.00
2018-07-06T10:20:08.617Z,95624.00
2018-07-06T10:22:40.589Z,95628.00
2018-07-06T10:25:12.675Z,95629.00
2018-07-06T10:27:57.562Z,95633.00
2018-07-06T10:31:15.349Z,95634.00
2018-07-06T10:33:46.960Z,95639.00
2018-07-06T10:36:18.268Z,95635.00
2018-07-06T10:38:49.836Z,95637.00
2018-07-06T10:41:26.095Z,95634.00
2018-07-06T10:43:57.847Z,95637.00
2018-07-06T10:46:29.196Z,95639.00
2018-07-06T10:49:00.525Z,95640.00
2018-07-06T10:51:32.881Z,95643.00
2018-07-06T10:54:14.306Z,95633.00
2018-07-06T10:56:48.778Z,95639.00
2018-07-06T10:59:34.199Z,95639.00
2018-07-06T11:02:31.797Z,95637.00
2018-07-06T11:05:08.755Z,95634.00
2018-07-06T11:07:48.424Z,95634.00
2018-07-06T11:10:20.391Z,95637.00
2018-07-06T11:12:51.992Z,95634.00
2018-07-06T11:15:23.565Z,95639.00
2018-07-06T11:17:54.797Z,95639.00
2018-07-06T11:20:26.484Z,95645.00
2018-07-06T11:22:57.987Z,95643.00
2018-07-06T11:25:29.840Z,95645.00
2018-07-06T11:28:01.137Z,95637.00
2018-07-06T11:30:34.404Z,95631.00
2018-07-06T11:33:06.291Z,95629.00
2018-07-06T11:35:37.640Z,95639.00
2018-07-06T11:38:09.221Z,95637.00
2018-07-06T11:40:40.541Z,95642.00
2018-07-06T11:43:12.032Z,95643.00
2018-07-06T11:45:43.601Z,95641.00
2018-07-06T11:48:15.065Z,95636.00
2018-07-06T11:50:47.311Z,95651.00
2018-07-06T11:53:18.701Z,95649.00
2018-07-06T11:55:50.218Z,95641.00
2018-07-06T11:58:21.777Z,95644.00
2018-07-06T12:00:53.274Z,95641.00
2018-07-06T12:03:24.634Z,95649.00
2018-07-06T12:05:57.385Z,95638.00
2018-07-06T12:08:29.362Z,95635.00
2018-07-06T12:11:00.836Z,95641.00
2018-07-06T12:13:32.452Z,95643.00
2018-07-06T12:16:03.971Z,95641.00
2018-07-06T12:18:35.431Z,95640.00
2018-07-06T12:21:07.066Z,95639.00
2018-07-06T12:23:38.578Z,95640.00
2018-07-06T12:26:09.834Z,95640.00
2018-07-06T12:28:41.244Z,95637.00
2018-07-06T12:31:12.619Z,95631.00
2018-07-06T12:33:44.143Z,95637.00
2018-07-06T12:36:16.064Z,95636.00
2018-07-06T12:38:47.939Z,95632.00
2018-07-06T12:41:20.502Z,95637.00
2018-07-06T12:43:51.969Z,95628.00
2018-07-06T12:46:23.318Z,95635.00
2018-07-06T12:48:54.494Z,95645.00
2018-07-06T12:51:27.559Z,95639.00
2018-07-06T12:53:58.945Z,95643.00
2018-07-06T12:56:44.227Z,95633.00
2018-07-06T12:59:18.683Z,95635.00
2018-07-06T13:01:49.990Z,95638.00
2018-07-06T13:04:21.359Z,95640.00
2018-07-06T13:06:52.734Z,95639.00
2018-07-06T13:09:24.157Z,95635.00
2018-07-06T13:11:55.583Z,95633.00
2018-07-06T13:14:27.042Z,95630.00
2018-07-06T13:16:58.827Z,95632.00
2018-07-06T13:19:30.556Z,95638.00
2018-07-06T13:22:02.574Z,95628.00
2018-07-06T13:24:33.874Z,95631.00
2018-07-06T13:27:05.169Z,95631.00
2018-07-06T13:29:36.765Z,95627.00
2018-07-06T13:32:08.222Z,95625.00
2018-07-06T13:34:39.803Z,95625.00
2018-07-06T13:37:11.152Z,95628.00
2018-07-06T13:39:42.731Z,95622.00
2018-07-06T13:42:14.529Z,95618.00
2018-07-06T13:44:46.045Z,95619.00
2018-07-06T13:47:18.156Z,95619.00
2018-07-06T13:49:49.647Z,95620.00
2018-07-06T13:52:20.983Z,95616.00
2018-07-06T13:54:52.502Z,95615.00
2018-07-06T13:57:23.920Z,95616.00
2018-07-06T13:59:55.296Z,95613.00
2018-07-06T14:02:26.540Z,95617.00
2018-07-06T14:05:09.809Z,95617.00
2018-07-06T14:07:41.357Z,95621.00
2018-07-06T14:10:12.909Z,95612.00
2018-07-06T14:12:44.504Z,95610.00
2018-07-06T14:15:15.963Z,95619.00
2018-07-06T14:17:47.425Z,95622.00
2018-07-06T14:20:18.851Z,95625.00
2018-07-06T14:22:50.314Z,95621.00
2018-07-06T14:25:21.666Z,95623.00
2018-07-06T14:27:53.026Z,95629.00
2018-07-06T14:30:24.343Z,95629.00
2018-07-06T14:32:55.698Z,95625.00
2018-07-06T14:35:26.837Z,95625.00
2018-07-06T14:37:58.688Z,95620.00
2018-07-06T14:40:30.043Z,95622.00
2018-07-06T14:43:02.435Z,95621.00
2018-07-06T14:45:33.805Z,95614.00
2018-07-06T14:48:05.252Z,95620.00
2018-07-06T14:50:36.680Z,95618.00
2018-07-06T14:53:08.087Z,95614.00
2018-07-06T14:55:39.577Z,95619.00
2018-07-06T14:58:10.897Z,95619.00
2018-07-06T15:00:42.343Z,95616.00
2018-07-06T15:03:13.772Z,95619.00
2018-07-06T15:05:45.611Z,95618.00
2018-07-06T15:08:16.990Z,95624.00
2018-07-06T15:10:48.456Z,95624.00
2018-07-06T15:13:20.024Z,95627.00
2018-07-06T15:15:51.457Z,95630.00
2018-07-06T15:18:22.895Z,95630.00
2018-07-06T15:20:54.133Z,95632.00
2018-07-06T15:23:25.341Z,95628.00
2018-07-06T15:25:56.674Z,95637.00
2018-07-06T15:28:28.165Z,95636.00
2018-07-06T15:30:59.526Z,95635.00
2018-07-06T15:33:31.195Z,95635.00
2018-07-06T15:36:02.628Z,95631.00
2018-07-06T15:38:34.239Z,95629.00
2018-07-06T15:41:05.709Z,95635.00
2018-07-06T15:43:37.391Z,95635.00
2018-07-06T15:46:09.169Z,95638.00
2018-07-06T15:48:40.600Z,95643.00
2018-07-06T15:51:12.328Z,95641.00
2018-07-06T15:53:44.056Z,95636.00
2018-07-06T15:56:15.413Z,95632.00
2018-07-06T15:58:46.934Z,95634.00
2018-07-06T16:01:19.204Z,95631.00
2018-07-06T16:03:50.454Z,95633.00
2018-07-06T16:06:22.901Z,95639.00
2018-07-06T16:08:56.539Z,95641.00
2018-07-06T16:11:31.368Z,95639.00
2018-07-06T16:14:06.924Z,95644.00
2018-07-06T16:16:45.893Z,95644.00
2018-07-06T16:19:20.325Z,95640.00
2018-07-06T16:21:52.357Z,95646.00
2018-07-06T16:24:24.743Z,95642.00
2018-07-06T16:26:57.283Z,95645.00
2018-07-06T16:29:30.354Z,95648.00
2018-07-06T16:32:03.403Z,95650.00
2018-07-06T16:34:36.679Z,95655.00
2018-07-06T16:37:09.611Z,95649.00
2018-07-06T16:39:42.279Z,95656.00
2018-07-06T16:42:14.457Z,95653.00
2018-07-06T16:44:47.148Z,95651.00
2018-07-06T16:47:19.140Z,95658.00
2018-07-06T16:49:51.298Z,95650.00
2018-07-06T16:52:24.083Z,95658.00
2018-07-06T16:54:56.739Z,95661.00
2018-07-06T16:57:28.135Z,95665.00
2018-07-06T16:59:59.522Z,95671.00
2018-07-06T17:02:30.900Z,95674.00
2018-07-06T17:05:02.114Z,95670.00
2018-07-06T17:07:33.572Z,95677.00
2018-07-06T17:10:05.013Z,95677.00
2018-07-06T17:12:37.185Z,95677.00
2018-07-06T17:15:08.520Z,95686.00
2018-07-06T17:17:40.259Z,95684.00
2018-07-06T17:20:13.122Z,95690.00
2018-07-06T17:22:44.473Z,95687.00
2018-07-06T17:25:15.837Z,95692.00
2018-07-06T17:27:48.469Z,95701.00
2018-07-06T17:30:20.039Z,95702.00
2018-07-06T17:32:51.664Z,95705.00
2018-07-06T17:35:23.064Z,95696.00
2018-07-06T17:37:54.792Z,95704.00
2018-07-06T17:40:26.428Z,95711.00
2018-07-06T17:42:57.585Z,95711.00
2018-07-06T17:45:29.085Z,95715.00
2018-07-06T17:48:00.693Z,95714.00
2018-07-06T17:50:32.092Z,95719.00
2018-07-06T17:53:03.498Z,95717.00
2018-07-06T17:55:34.973Z,95721.00
2018-07-06T17:58:06.317Z,95719.00
2018-07-06T18:00:38.704Z,95722.00
2018-07-06T18:03:09.925Z,95725.00
2018-07-06T18:05:41.349Z,95727.00
2018-07-06T18:08:12.855Z,95727.00
2018-07-06T18:10:44.646Z,95728.00
2018-07-06T18:13:15.939Z,95731.00
2018-07-06T18:15:47.542Z,95734.00
2018-07-06T18:18:18.805Z,95735.00
2018-07-06T18:20:50.340Z,95735.00
2018-07-06T18:23:21.963Z,95740.00
2018-07-06T18:25:53.626Z,95748.00
2018-07-06T18:28:25.913Z,95749.00
2018-07-06T18:30:58.950Z,95741.00
2018-07-06T18:33:31.126Z,95747.00
2018-07-06T18:36:04.614Z,95741.00
2018-07-06T18:38:37.230Z,95746.00
2018-07-06T18:41:11.109Z,95752.00
2018-07-06T18:43:44.811Z,95751.00
2018-07-06T18:46:19.429Z,95757.00
2018-07-06T18:48:51.460Z,95758.00
2018-07-06T18:51:24.310Z,95757.00
2018-07-06T18:53:57.256Z,95758.00
2018-07-06T18:56:29.100Z,95761.00
2018-07-06T18:59:01.140Z,95766.00
2018-07-06T19:01:33.711Z,95765.00
2018-07-06T19:04:05.680Z,95766.00
2018-07-06T19:06:37.959Z,95766.00
2018-07-06T19:09:11.388Z,95769.00
2018-07-06T19:11:43.182Z,95772.00
2018-07-06T19:14:15.392Z,95774.00
2018-07-06T19:16:46.889Z,95778.00
2018-07-06T19:19:18.454Z,95786.00
2018-07-06T19:21:49.996Z,95786.00
2018-07-06T19:24:21.552Z,95792.00
2018-07-06T19:26:52.955Z,95796.00
2018-07-06T19:29:24.318Z,95803.00
2018-07-06T19:31:55.794Z,95802.00
2018-07-06T19:34:27.340Z,95808.00
2018-07-06T19:36:58.648Z,95813.00
2018-07-06T19:39:30.263Z,95818.00
2018-07-06T19:42:01.809Z,95816.00
2018-07-06T19:44:33.118Z,95821.00
2018-07-06T19:47:04.369Z,95819.00
2018-07-06T19:49:35.781Z,95822.00
2018-07-06T19:52:07.149Z,95821.00
2018-07-06T19:54:38.849Z,95826.00
2018-07-06T19:57:10.709Z,95833.00
2018-07-06T19:59:42.042Z,95833.00
2018-07-06T20:02:13.582Z,95836.00
2018-07-06T20:04:44.770Z,95840.00
2018-07-06T20:07:17.000Z,95835.00
2018-07-06T20:09:48.524Z,95842.00
2018-07-06T20:12:19.935Z,95844.00
2018-07-06T20:14:52.613Z,95844.00
2018-07-06T20:17:24.096Z,95847.00
2018-07-06T20:19:55.340Z,95854.00
2018-07-06T20:22:29.248Z,95852.00
2018-07-06T20:25:00.628Z,95854.00
2018-07-06T20:27:32.830Z,95852.00
2018-07-06T20:30:04.442Z,95850.00
2018-07-06T20:32:35.908Z,95857.00
2018-07-06T20:35:07.225Z,95862.00
2018-07-06T20:37:40.298Z,95869.00
2018-07-06T20:40:12.131Z,95867.00
2018-07-06T20:42:44.348Z,95869.00
2018-07-06T20:45:15.769Z,95865.00
2018-07-06T20:47:47.888Z,95871.00
2018-07-06T20:50:19.362Z,95866.00
2018-07-06T20:52:50.676Z,95876.00
2018-07-06T20:55:21.961Z,95880.00
2018-07-06T20:57:53.639Z,95874.00
2018-07-06T21:00:24.990Z,95878.00
2018-07-06T21:02:56.468Z,95886.00
2018-07-06T21:05:27.744Z,95885.00
2018-07-06T21:07:59.553Z,95889.00
2018-07-06T21:10:31.106Z,95885.00
2018-07-06T21:13:02.843Z,95892.00
2018-07-06T21:15:34.249Z,95886.00
2018-07-06T21:18:05.631Z,95890.00
2018-07-06T21:20:37.038Z,95889.00
2018-07-06T21:23:08.907Z,95890.00
2018-07-06T21:25:40.688Z,95899.00
2018-07-06T21:28:11.948Z,95899.00
2018-07-06T21:30:43.287Z,95897.00
2018-07-06T21:33:14.968Z,95903.00
2018-07-06T21:35:46.390Z,95907.00
2018-07-06T21:38:17.856Z,95910.00
2018-07-06T21:40:49.150Z,95909.00
2018-07-06T21:43:20.679Z,95906.00
2018-07-06T21:45:51.767Z,95909.00
2018-07-06T21:48:23.933Z,95912.00
2018-07-06T21:50:55.193Z,95909.00
2018-07-06T21:53:26.623Z,95917.00
2018-07-06T21:55:58.108Z,95920.00
2018-07-06T21:58:30.011Z,95915.00
2018-07-06T22:01:01.428Z,95914.00
2018-07-06T22:03:32.869Z,95915.00
2018-07-06T22:06:04.368Z,95917.00
2018-07-06T22:08:35.631Z,95916.00
2018-07-06T22:11:07.028Z,95916.00
2018-07-06T22:13:38.485Z,95921.00
2018-07-06T22:16:09.734Z,95919.00
2018-07-06T22:18:41.108Z,95926.00
2018-07-06T22:21:12.409Z,95925.00
2018-07-06T22:23:44.688Z,95927.00
2018-07-06T22:26:17.156Z,95930.00
2018-07-06T22:28:52.056Z,95928.00
2018-07-06T22:31:23.834Z,95928.00
2018-07-06T22:33:55.289Z,95932.00
2018-07-06T22:36:26.537Z,95932.00
2018-07-06T22:38:58.648Z,95932.00
2018-07-06T22:41:30.143Z,95926.00
2018-07-06T22:44:01.790Z,95932.00
2018-07-06T22:46:33.178Z,95928.00
2018-07-06T22:49:04.748Z,95930.00
2018-07-06T22:51:36.282Z,95926.00
2018-07-06T22:54:07.599Z,95929.00
2018-07-06T22:56:38.907Z,95926.00
2018-07-06T22:59:10.152Z,95927.00
2018-07-06T23:01:41.786Z,95939.00
2018-07-06T23:04:13.456Z,95934.00
2018-07-06T23:06:45.168Z,95940.00
2018-07-06T23:09:16.425Z,95938.00
2018-07-06T23:11:47.790Z,95938.00
2018-07-06T23:14:19.004Z,95935.00
2018-07-06T23:16:50.445Z,95938.00
2018-07-06T23:19:21.976Z,95944.00
2018-07-06T23:21:53.464Z,95937.00
2018-07-06T23:24:24.730Z,95942.00
2018-07-06T23:26:56.110Z,95943.00
2018-07-06T23:29:27.580Z,95943.00
2018-07-06T23:31:58.896Z,95952.00
2018-07-06T23:34:30.419Z,95955.00
2018-07-06T23:37:01.737Z,95958.00
2018-07-06T23:39:33.165Z,95957.00
2018-07-06T23:42:04.563Z,95955.00
2018-07-06T23:44:35.942Z,95957.00
2018-07-06T23:47:07.187Z,95958.00
2018-07-06T23:49:38.821Z,95959.00
2018-07-06T23:52:10.411Z,95962.00
2018-07-06T23:54:41.762Z,95965.00
2018-07-06T23:57:13.082Z,95966.00
2018-07-06T23:59:44.302Z,95966.00
